Time;durP1;ratioP1;P1;durP2;ratioP2;P2;SDS_P1;SDS_P2;PMS_P1;PMS_P2;Temp;Humidity;BMP_temperature;BMP_pressure;BME280_temperature;BME280_humidity;BME280_pressure;Samples;Min_cycle;Max_cycle;Signal;HPM_P1;HPM_P2
2022/01/25 00:28:38;;;;;;;;;;;1.60;98.50;;;1.06;100.00;100688.78;5073442;28;19978;-58
2022/01/25 00:31:13;;;;;;;;;;;1.60;98.60;;;0.92;100.00;100664.38;5073380;28;19967;-58
2022/01/25 00:34:00;;;;;;;;;;;1.50;98.60;;;0.95;100.00;100680.44;5074380;28;20385;-58
2022/01/25 00:36:26;;;;;;;;;;;1.50;98.60;;;0.80;100.00;100652.69;5074400;28;19921;-59
2022/01/25 00:38:52;;;;;;;;;;;1.50;98.60;;;1.01;100.00;100695.59;5074469;28;19960;-58
2022/01/25 00:41:18;;;;;;;;;;;1.50;98.80;;;1.02;100.00;100701.53;5056687;28;19916;-58
2022/01/25 00:43:44;;;;;;;;;;;1.50;98.80;;;0.97;100.00;100701.59;5056375;28;19948;-59
2022/01/25 00:46:12;;;;;;;;;;;1.50;98.90;;;0.56;100.00;100655.53;5056317;28;19959;-58
2022/01/25 00:56:19;;;;;;;;;;;1.30;99.00;;;0.79;100.00;100681.50;5073009;28;20015;-58
2022/01/25 00:58:45;;;;;;;;;;;1.30;99.00;;;0.90;100.00;100697.47;5072327;28;20004;-59
2022/01/25 01:01:11;;;;;;;;;;;1.30;98.90;;;0.87;100.00;100692.41;5073949;28;19924;-58
2022/01/25 01:03:36;;;;;;;;;;;1.30;98.90;;;0.83;100.00;100693.28;5072589;28;19920;-59
2022/01/25 01:06:05;;;;;;;;;;;1.30;98.90;;;0.49;100.00;100644.59;5073900;28;19927;-59
2022/01/25 01:08:31;;;;;;;;;;;1.30;98.90;;;0.53;100.00;100643.69;5056227;28;19917;-59
2022/01/25 01:10:58;;;;;;;;;;;1.30;98.90;;;0.61;100.00;100658.84;5073637;28;20344;-59
2022/01/25 01:13:51;;;;;;;;;;;1.30;99.00;;;0.85;100.00;100700.88;5073605;28;20361;-59
2022/01/25 01:29:58;;;;;;;;;;;1.20;99.20;;;0.71;100.00;100698.50;5071905;28;19931;-59
2022/01/25 01:40:47;;;;;;;;;;;1.20;99.40;;;0.66;100.00;100692.66;5073429;28;20285;-59
2022/01/25 01:43:26;;;;;;;;;;;1.10;99.10;;;0.63;100.00;100685.06;5072124;28;20378;-59
2022/01/25 01:48:37;;;;;;;;;;;1.20;99.30;;;0.72;100.00;100682.41;5072510;28;19920;-58
2022/01/25 01:51:08;;;;;;;;;;;1.20;99.30;;;0.54;100.00;100669.91;5073531;28;19921;-58
2022/01/25 01:53:34;;;;;;;;;;;1.20;99.30;;;0.67;100.00;100666.38;5055994;28;19917;-59
2022/01/25 01:56:00;;;;;;;;;;;1.10;99.90;;;0.89;100.00;100702.56;5073854;28;19928;-59
2022/01/25 01:58:26;;;;;;;;;;;1.20;99.10;;;0.75;100.00;100692.53;5072001;28;19920;-59
2022/01/25 02:00:52;;;;;;;;;;;1.20;99.30;;;0.87;100.00;100694.09;5073802;28;20297;-59
2022/01/25 02:03:17;;;;;;;;;;;1.20;99.30;;;0.84;100.00;100676.34;5074633;28;19978;-58
2022/01/25 02:05:43;;;;;;;;;;;1.20;99.20;;;0.94;100.00;100696.53;5076026;28;20471;-59
2022/01/25 02:08:09;;;;;;;;;;;1.20;99.00;;;0.87;100.00;100681.41;5076093;28;19920;-59
2022/01/25 02:10:35;;;;;;;;;;;1.30;99.10;;;0.89;100.00;100694.94;5059388;28;19944;-59
2022/01/25 02:13:04;;;;;;;;;;;1.30;99.00;;;0.91;100.00;100688.94;5075763;28;19917;-59
2022/01/25 02:15:30;;;;;;;;;;;1.30;98.90;;;0.91;100.00;100693.19;5077002;28;19964;-59
2022/01/25 02:23:25;;;;;;;;;;;1.20;98.70;;;0.79;100.00;100688.28;5075843;28;19927;-58
2022/01/25 02:25:53;;;;;;;;;;;1.20;98.50;;;0.80;100.00;100680.63;5075492;28;19921;-59
2022/01/25 02:28:19;;;;;;;;;;;1.20;98.50;;;0.30;100.00;100615.19;5076962;28;19968;-59
2022/01/25 02:30:45;;;;;;;;;;;1.20;98.40;;;0.70;100.00;100677.34;5058533;28;20362;-58
2022/01/25 02:33:11;;;;;;;;;;;1.10;98.30;;;0.65;100.00;100674.03;5075599;28;19924;-58
2022/01/25 02:35:36;;;;;;;;;;;1.10;98.30;;;0.70;100.00;100687.50;5075469;28;19921;-59
2022/01/25 02:38:03;;;;;;;;;;;1.10;98.30;;;0.72;100.00;100678.19;5058917;28;19972;-58
2022/01/25 02:40:29;;;;;;;;;;;1.10;98.40;;;0.33;100.00;100622.78;5075072;28;20282;-59
2022/01/25 02:42:54;;;;;;;;;;;1.10;98.40;;;0.58;100.00;100684.25;5042150;28;20015;-59
2022/01/25 02:45:21;;;;;;;;;;;1.10;98.30;;;0.53;100.00;100680.94;5076643;28;19921;-58
2022/01/25 02:50:31;;;;;;;;;;;1.10;98.30;;;0.30;100.00;100651.56;5061230;28;20448;-59
2022/01/25 02:52:57;;;;;;;;;;;1.00;98.30;;;0.27;100.00;100658.34;5076449;28;19920;-58
2022/01/25 02:55:23;;;;;;;;;;;0.90;98.30;;;0.14;100.00;100641.56;5076281;28;19920;-58
2022/01/25 02:57:49;;;;;;;;;;;0.90;98.50;;;0.27;100.00;100659.19;5075077;28;19997;-58
2022/01/25 03:00:16;;;;;;;;;;;0.80;98.70;;;0.35;100.00;100667.56;5058824;28;20018;-58
2022/01/25 03:02:42;;;;;;;;;;;0.80;98.90;;;0.45;100.00;100675.09;5074950;28;19985;-58
2022/01/25 03:05:08;;;;;;;;;;;0.80;99.00;;;0.19;100.00;100633.03;5074836;28;20323;-58
2022/01/25 03:07:34;;;;;;;;;;;0.80;99.10;;;0.54;100.00;100672.47;5075709;28;20320;-59
2022/01/25 03:10:00;;;;;;;;;;;0.80;99.10;;;0.63;100.00;100674.91;5074981;28;19927;-58
2022/01/25 03:12:38;;;;;;;;;;;0.80;99.10;;;0.59;100.00;100661.38;5074937;28;20003;-58
2022/01/25 03:17:51;;;;;;;;;;;0.90;99.00;;;0.54;100.00;100657.22;5074897;28;19962;-59
2022/01/25 03:20:21;;;;;;;;;;;0.90;99.00;;;0.19;100.00;100609.38;5074935;28;19966;-58
2022/01/25 03:25:22;;;;;;;;;;;0.90;98.90;;;0.55;100.00;100664.00;5076055;28;19920;-58
2022/01/25 03:27:48;;;;;;;;;;;0.90;98.90;;;0.38;100.00;100647.25;5074476;28;19920;-58
2022/01/25 03:30:13;;;;;;;;;;;1.00;98.80;;;0.39;100.00;100650.63;5057804;28;19984;-59
2022/01/25 03:32:39;;;;;;;;;;;0.90;98.70;;;0.22;100.00;100624.56;5074078;28;19924;-58
2022/01/25 03:35:05;;;;;;;;;;;0.90;98.70;;;0.49;100.00;100659.84;5075944;28;19924;-58
2022/01/25 03:37:31;;;;;;;;;;;0.90;98.80;;;0.22;100.00;100622.88;5075485;28;19968;-64
2022/01/25 03:39:57;;;;;;;;;;;0.90;98.80;;;0.41;100.00;100654.00;5076186;28;20277;-58
2022/01/25 03:42:24;;;;;;;;;;;0.90;98.90;;;0.42;100.00;100645.50;5075615;28;20250;-58
2022/01/25 03:44:50;;;;;;;;;;;0.80;98.80;;;0.36;100.00;100645.56;5075410;28;19928;-58
2022/01/25 03:47:20;;;;;;;;;;;0.80;98.80;;;0.30;100.00;100638.03;5075822;28;19921;-58
2022/01/25 03:49:50;;;;;;;;;;;0.80;98.80;;;0.38;100.00;100649.78;5074144;28;19975;-58
2022/01/25 03:52:24;;;;;;;;;;;0.80;98.70;;;0.50;100.00;100647.94;5075481;28;20354;-58
2022/01/25 03:54:50;;;;;;;;;;;0.80;98.60;;;0.54;100.00;100644.53;5075106;28;19927;-58
2022/01/25 03:57:17;;;;;;;;;;;0.90;98.50;;;0.19;100.00;100597.53;5075288;28;19920;-58
2022/01/25 03:59:43;;;;;;;;;;;0.90;98.20;;;0.46;100.00;100646.31;5056963;28;19924;-59
2022/01/25 04:02:08;;;;;;;;;;;0.80;98.00;;;-0.02;100.00;100590.13;5075026;28;20061;-58
2022/01/25 04:04:35;;;;;;;;;;;0.80;98.00;;;0.42;100.00;100653.09;5074892;28;19921;-59
2022/01/25 04:07:08;;;;;;;;;;;0.80;98.00;;;0.24;100.00;100656.69;5073953;28;19986;-58
2022/01/25 04:09:34;;;;;;;;;;;0.80;98.00;;;0.30;100.00;100638.03;5073691;28;19920;-59
2022/01/25 04:12:01;;;;;;;;;;;0.80;98.00;;;0.28;100.00;100616.88;5073615;28;19931;-58
2022/01/25 04:14:28;;;;;;;;;;;0.70;97.70;;;0.33;100.00;100636.28;5073827;28;19920;-58
2022/01/25 04:17:02;;;;;;;;;;;0.70;97.70;;;0.09;100.00;100611.16;5073515;28;19964;-58
2022/01/25 04:25:03;;;;;;;;;;;0.70;97.50;;;0.15;100.00;100605.19;5073562;28;19920;-59
2022/01/25 04:27:29;;;;;;;;;;;0.70;97.30;;;0.33;100.00;100643.09;5074511;28;19933;-58
2022/01/25 04:29:55;;;;;;;;;;;0.70;97.30;;;0.41;100.00;100643.00;5055877;28;19967;-58
2022/01/25 04:32:32;;;;;;;;;;;0.70;97.30;;;0.25;100.00;100632.13;5073226;28;19967;-58
2022/01/25 04:35:12;;;;;;;;;;;0.70;97.40;;;0.30;100.00;100636.31;5073347;28;19916;-58
2022/01/25 04:56:50;;;;;;;;;;;0.60;96.80;;;0.29;100.00;100638.88;5074174;28;19931;-58
2022/01/25 04:59:17;;;;;;;;;;;0.70;96.50;;;0.16;100.00;100635.63;5072603;28;19960;-58
2022/01/25 05:01:44;;;;;;;;;;;0.60;96.30;;;0.02;100.00;100619.69;5072782;28;19931;-58
2022/01/25 05:04:15;;;;;;;;;;;0.60;96.30;;;-0.05;100.00;100618.06;5074155;28;19924;-58
2022/01/25 05:06:45;;;;;;;;;;;0.50;96.40;;;0.11;100.00;100644.13;5072681;28;19920;-58
2022/01/25 05:09:13;;;;;;;;;;;0.50;96.70;;;-0.06;100.00;100626.53;5073246;28;20301;-58
2022/01/25 05:11:44;;;;;;;;;;;0.40;96.90;;;-0.26;100.00;100631.78;5073672;28;19921;-59
2022/01/25 05:14:25;;;;;;;;;;;0.40;97.00;;;-0.40;100.00;100633.56;5056837;28;19920;-58
2022/01/25 05:22:05;;;;;;;;;;;0.30;97.00;;;-0.01;100.00;100656.09;5073471;28;19921;-58
2022/01/25 05:24:40;;;;;;;;;;;0.30;96.90;;;-0.26;100.00;100595.44;5072775;28;19969;-58
2022/01/25 05:27:09;;;;;;;;;;;0.30;96.90;;;0.03;100.00;100656.88;5072604;28;19920;-58
2022/01/25 05:29:35;;;;;;;;;;;0.40;96.90;;;-0.15;100.00;100611.38;5072149;28;20374;-58
2022/01/25 05:32:01;;;;;;;;;;;0.30;96.90;;;-0.01;100.00;100635.78;5073317;28;19927;-58
2022/01/25 05:34:27;;;;;;;;;;;0.40;96.90;;;0.12;100.00;100651.72;5072172;28;20327;-58
2022/01/25 05:36:53;;;;;;;;;;;0.40;96.90;;;-0.06;100.00;100644.28;5072942;28;19999;-58
2022/01/25 05:39:27;;;;;;;;;;;0.40;96.80;;;-0.04;100.00;100625.66;5071825;28;20298;-58
2022/01/25 05:42:03;;;;;;;;;;;0.30;96.70;;;-0.24;100.00;100588.63;5056748;28;20395;-58
2022/01/25 05:44:42;;;;;;;;;;;0.30;96.70;;;0.01;100.00;100648.44;5072637;28;20458;-58
2022/01/25 05:47:08;;;;;;;;;;;0.30;96.70;;;-0.22;100.00;100647.81;5057624;28;19928;-58
2022/01/25 05:49:35;;;;;;;;;;;0.30;96.60;;;-0.12;100.00;100652.78;5056107;28;20396;-58
2022/01/25 05:52:03;;;;;;;;;;;0.30;96.60;;;-0.13;100.00;100640.13;5055389;28;19967;-58
2022/01/25 05:54:29;;;;;;;;;;;0.30;96.50;;;0.01;100.00;100656.06;5055620;28;19916;-58
2022/01/25 05:56:55;;;;;;;;;;;0.20;96.40;;;-0.03;100.00;100652.72;5072909;28;19926;-58
2022/01/25 05:59:20;;;;;;;;;;;0.30;96.40;;;-0.05;100.00;100659.50;5055360;28;20362;-58
2022/01/25 06:01:46;;;;;;;;;;;0.30;96.40;;;-0.33;100.00;100609.84;5055311;28;19920;-58
2022/01/25 06:04:13;;;;;;;;;;;0.20;96.20;;;-0.22;100.00;100638.50;5073381;28;20015;-58
2022/01/25 06:06:38;;;;;;;;;;;0.20;96.20;;;-0.04;100.00;100655.25;5072247;28;19925;-58
2022/01/25 06:09:04;;;;;;;;;;;0.20;96.20;;;-0.20;100.00;100661.31;5072199;28;19927;-58
2022/01/25 06:11:30;;;;;;;;;;;0.20;96.20;;;-0.27;100.00;100662.22;5072819;28;19921;-58
2022/01/25 06:13:56;;;;;;;;;;;0.20;96.10;;;-0.58;100.00;100596.56;5071634;28;19969;-58
2022/01/25 06:16:21;;;;;;;;;;;0.20;96.10;;;-0.24;100.00;100664.72;5071951;28;19977;-58
2022/01/25 06:18:47;;;;;;;;;;;0.20;96.20;;;-0.38;100.00;100654.69;5072772;28;19924;-58
2022/01/25 06:21:13;;;;;;;;;;;0.20;96.20;;;-0.19;100.00;100676.53;5072207;28;19921;-58
2022/01/25 06:23:39;;;;;;;;;;;0.20;96.20;;;-0.50;100.00;100653.09;5071699;28;19928;-58
2022/01/25 06:26:04;;;;;;;;;;;0.20;96.20;;;-0.33;100.00;100680.84;5072906;28;19921;-56
2022/01/25 06:28:31;;;;;;;;;;;0.20;96.10;;;-0.21;100.00;100678.22;5072152;28;19928;-57
2022/01/25 06:30:57;;;;;;;;;;;0.20;96.10;;;-0.08;100.00;100687.41;5089566;28;20022;-56
2022/01/25 06:33:22;;;;;;;;;;;0.20;96.20;;;-0.22;100.00;100688.38;5075231;28;20011;-57
2022/01/25 06:35:49;;;;;;;;;;;0.20;96.10;;;-0.24;100.00;100695.16;5075067;28;20364;-56
2022/01/25 06:38:15;;;;;;;;;;;0.10;96.00;;;-0.28;100.00;100690.97;5075142;28;19920;-56
2022/01/25 06:40:41;;;;;;;;;;;0.10;96.00;;;-0.40;100.00;100679.22;5075334;28;19938;-56
2022/01/25 06:43:06;;;;;;;;;;;0.10;96.00;;;-0.40;100.00;100694.41;5075074;28;19920;-56
2022/01/25 06:45:33;;;;;;;;;;;0.10;96.00;;;-0.53;100.00;100686.06;5074939;28;19927;-58
2022/01/25 06:47:59;;;;;;;;;;;0.10;96.10;;;-0.87;100.00;100609.41;5075037;28;20322;-56
2022/01/25 06:50:25;;;;;;;;;;;0.00;96.10;;;-0.26;100.00;100707.03;5076460;28;19920;-56
2022/01/25 06:52:51;;;;;;;;;;;0.10;96.20;;;-0.56;100.00;100677.63;5096502;28;19926;-57
2022/01/25 06:55:17;;;;;;;;;;;0.10;96.20;;;-0.79;100.00;100700.56;5078828;28;19927;-56
2022/01/25 06:57:43;;;;;;;;;;;0.10;96.10;;;-0.92;100.00;100709.94;5078192;28;20014;-62
2022/01/25 07:00:14;;;;;;;;;;;0.00;96.00;;;-0.60;100.00;100707.22;5078725;28;19934;-56
2022/01/25 07:02:40;;;;;;;;;;;0.00;96.10;;;-0.64;100.00;100677.69;5078489;28;19969;-56
2022/01/25 07:05:07;;;;;;;;;;;0.00;96.20;;;-0.74;100.00;100701.38;5078203;28;19920;-56
2022/01/25 07:07:33;;;;;;;;;;;0.00;96.20;;;-0.63;100.00;100714.84;5096448;28;20357;-56
2022/01/25 07:09:59;;;;;;;;;;;0.00;96.20;;;-0.72;100.00;100668.44;5078082;28;19920;-56
2022/01/25 07:12:25;;;;;;;;;;;0.00;96.30;;;-0.42;100.00;100709.66;5096295;28;19974;-57
2022/01/25 07:14:50;;;;;;;;;;;0.00;96.30;;;-0.32;100.00;100691.81;5061538;28;19920;-60
2022/01/25 07:17:16;;;;;;;;;;;0.00;96.30;;;-0.26;100.00;100714.63;5061096;28;20383;-57
2022/01/25 07:19:42;;;;;;;;;;;0.10;96.30;;;-0.51;100.00;100712.25;5078274;28;19920;-57
2022/01/25 07:22:08;;;;;;;;;;;0.10;96.20;;;-0.35;100.00;100704.53;5077746;28;19920;-57
2022/01/25 07:24:33;;;;;;;;;;;0.10;96.20;;;-0.24;100.00;100708.66;5096396;28;20361;-57
2022/01/25 07:26:59;;;;;;;;;;;0.10;96.20;;;-0.10;100.00;100716.19;5077900;28;19949;-57
2022/01/25 07:29:25;;;;;;;;;;;0.20;96.20;;;-0.02;100.00;100706.84;5074569;28;19970;-57
2022/01/25 07:31:51;;;;;;;;;;;0.20;96.30;;;0.15;100.00;100715.16;5074015;28;20380;-56
2022/01/25 07:34:17;;;;;;;;;;;0.30;96.40;;;-0.08;100.00;100679.81;5075943;28;19921;-56
2022/01/25 07:36:43;;;;;;;;;;;0.40;96.30;;;0.20;100.00;100715.09;5075760;28;19927;-56
2022/01/25 07:39:09;;;;;;;;;;;0.40;96.30;;;0.14;100.00;100708.38;5075887;28;20357;-56
2022/01/25 07:41:36;;;;;;;;;;;0.50;96.20;;;0.22;100.00;100721.84;5074267;28;20376;-56
2022/01/25 07:44:02;;;;;;;;;;;0.50;96.20;;;-0.24;100.00;100637.66;5075135;28;20328;-56
2022/01/25 07:46:29;;;;;;;;;;;0.50;96.10;;;0.17;100.00;100708.34;5074270;28;19916;-56
2022/01/25 07:48:56;;;;;;;;;;;0.60;96.20;;;0.32;100.00;100723.47;5074144;28;19943;-57
2022/01/25 07:51:21;;;;;;;;;;;0.60;96.20;;;0.36;100.00;100716.63;5075652;28;19974;-57
2022/01/25 07:53:48;;;;;;;;;;;0.70;96.20;;;0.07;100.00;100678.84;5075003;28;20338;-58
2022/01/25 07:56:14;;;;;;;;;;;0.80;96.00;;;0.41;100.00;100727.63;5057484;28;20007;-63
2022/01/25 07:58:40;;;;;;;;;;;0.90;95.80;;;0.56;100.00;100726.63;5057263;28;19920;-63
2022/01/25 08:01:05;;;;;;;;;;;1.00;95.70;;;0.77;100.00;100739.94;5056749;28;19920;-62
2022/01/25 08:03:31;;;;;;;;;;;1.10;95.50;;;0.65;100.00;100685.91;5074001;28;19924;-62
2022/01/25 08:05:57;;;;;;;;;;;1.30;95.50;;;1.06;100.00;100726.91;5073638;28;19920;-62
2022/01/25 08:08:23;;;;;;;;;;;1.40;95.50;;;1.26;100.00;100725.78;5057184;28;19920;-62
2022/01/25 08:10:48;;;;;;;;;;;1.60;95.40;;;1.38;100.00;100723.13;5073515;28;19927;-62
2022/01/25 08:13:14;;;;;;;;;;;1.70;95.20;;;1.47;100.00;100720.44;5074959;28;19921;-63
2022/01/25 08:15:40;;;;;;;;;;;1.90;95.00;;;1.53;100.00;100715.28;5040504;28;19920;-63
2022/01/25 08:18:06;;;;;;;;;;;2.00;94.70;;;1.80;100.00;100721.66;5056351;28;19927;-63
2022/01/25 08:20:32;;;;;;;;;;;2.20;94.50;;;1.94;100.00;100729.06;5074303;28;19943;-63
2022/01/25 08:22:58;;;;;;;;;;;2.30;94.40;;;2.08;100.00;100711.88;5074157;28;20377;-64
2022/01/25 08:25:24;;;;;;;;;;;2.50;94.30;;;1.92;100.00;100701.94;5070623;28;19939;-64
2022/01/25 08:27:49;;;;;;;;;;;2.50;93.90;;;2.04;100.00;100723.00;5052945;28;19995;-60
2022/01/25 08:30:15;;;;;;;;;;;2.60;93.40;;;2.22;100.00;100727.78;5064464;28;19955;-60
2022/01/25 08:32:41;;;;;;;;;;;2.70;93.30;;;2.20;100.00;100726.97;5055461;28;19929;-61
2022/01/25 08:35:08;;;;;;;;;;;2.80;93.10;;;2.20;100.00;100716.78;5055976;28;20024;-62
2022/01/25 08:37:33;;;;;;;;;;;2.90;92.90;;;2.29;100.00;100703.91;5039708;28;20015;-63
2022/01/25 08:39:59;;;;;;;;;;;3.00;92.90;;;2.62;100.00;100727.94;5055716;28;20369;-60
2022/01/25 08:42:25;;;;;;;;;;;3.20;92.90;;;2.68;100.00;100717.63;5074359;28;20361;-60
2022/01/25 08:44:51;;;;;;;;;;;3.30;92.70;;;2.74;100.00;100688.63;5039435;28;19920;-60
2022/01/25 08:47:18;;;;;;;;;;;3.50;92.60;;;2.74;100.00;100686.06;5056575;28;20280;-60
2022/01/25 08:49:44;;;;;;;;;;;3.70;92.20;;;3.17;100.00;100726.84;5056507;28;20289;-60
2022/01/25 08:52:10;;;;;;;;;;;3.80;92.00;;;3.38;100.00;100722.13;5056169;28;19924;-60
2022/01/25 08:54:36;;;;;;;;;;;4.10;91.80;;;2.97;100.00;100717.03;5074236;28;19920;-60
2022/01/25 08:57:02;;;;;;;;;;;4.10;91.00;;;3.27;100.00;100728.34;5056397;28;19921;-60
2022/01/25 08:59:28;;;;;;;;;;;4.20;90.70;;;3.53;100.00;100727.78;5056129;28;19920;-61
2022/01/25 09:01:53;;;;;;;;;;;4.40;90.40;;;3.86;100.00;100741.50;5056045;28;19977;-63
2022/01/25 09:04:19;;;;;;;;;;;4.60;90.20;;;3.66;100.00;100711.31;5056109;28;19924;-62
2022/01/25 09:06:45;;;;;;;;;;;4.80;89.80;;;3.83;100.00;100691.34;5073894;28;20358;-61
2022/01/25 09:09:11;;;;;;;;;;;4.90;89.30;;;4.06;100.00;100662.69;5055614;28;19930;-62
2022/01/25 09:11:39;;;;;;;;;;;;;;;4.71;100.00;100729.13;5055808;28;19965;-61
2022/01/25 09:14:06;;;;;;;;;;;5.40;88.50;;;4.89;100.00;100724.38;5054860;28;19939;-60
2022/01/25 09:16:32;;;;;;;;;;;5.80;88.60;;;5.35;98.81;100730.75;5056104;28;20349;-62
2022/01/25 09:18:57;;;;;;;;;;;6.30;86.80;;;5.41;88.01;100720.34;5073636;28;19920;-61
2022/01/25 09:21:23;;;;;;;;;;;6.70;82.20;;;5.59;86.44;100708.72;5039451;28;19920;-62
2022/01/25 09:23:49;;;;;;;;;;;7.20;78.50;;;5.64;86.70;100710.22;5055692;28;19924;-62
2022/01/25 09:26:16;;;;;;;;;;;7.80;75.60;;;6.84;79.40;100731.88;5073443;28;19920;-62
2022/01/25 09:28:43;;;;;;;;;;;8.50;73.90;;;7.30;72.46;100722.53;5073497;28;19974;-62
2022/01/25 09:31:09;;;;;;;;;;;9.20;69.80;;;7.61;70.42;100719.63;5055295;28;20007;-61
2022/01/25 09:33:37;;;;;;;;;;;9.70;66.60;;;7.94;68.79;100731.16;5072540;28;20163;-61
2022/01/25 09:36:03;;;;;;;;;;;10.10;62.80;;;7.71;68.01;100728.66;5055521;28;19924;-61
2022/01/25 09:38:28;;;;;;;;;;;10.50;62.30;;;8.48;66.17;100731.56;5073691;28;20308;-61
2022/01/25 09:40:54;;;;;;;;;;;10.80;61.00;;;7.92;68.79;100725.22;5073268;28;19924;-62
2022/01/25 09:43:21;;;;;;;;;;;10.70;59.50;;;7.31;67.91;100683.13;5073416;28;19947;-60
2022/01/25 09:45:47;;;;;;;;;;;10.50;59.40;;;6.77;74.73;100732.16;5073535;28;19920;-61
2022/01/25 09:48:13;;;;;;;;;;;9.70;61.20;;;6.19;80.92;100731.56;5038766;28;20315;-61
2022/01/25 09:50:39;;;;;;;;;;;8.90;63.20;;;5.55;87.90;100733.56;5073448;28;20340;-62
2022/01/25 09:53:06;;;;;;;;;;;8.10;65.10;;;5.30;92.32;100722.34;5055085;28;19927;-62
2022/01/25 09:55:36;;;;;;;;;;;7.60;67.90;;;4.76;97.26;100641.22;5056113;28;19921;-62
2022/01/25 09:58:05;;;;;;;;;;;7.20;69.80;;;5.24;99.60;100727.66;5055390;28;19916;-62
2022/01/25 10:00:31;;;;;;;;;;;6.90;71.60;;;5.09;100.00;100718.72;5055619;28;20366;-62
2022/01/25 10:03:12;;;;;;;;;;;6.60;73.00;;;4.60;100.00;100686.00;5073237;28;19943;-61
2022/01/25 10:05:45;;;;;;;;;;;6.40;75.70;;;4.73;100.00;100727.38;5057715;28;19920;-62
2022/01/25 10:08:24;;;;;;;;;;;6.10;76.40;;;4.68;100.00;100734.34;5054786;28;19916;-62
2022/01/25 10:11:01;;;;;;;;;;;6.00;77.80;;;4.23;100.00;100683.53;5056962;28;19920;-62
2022/01/25 10:13:34;;;;;;;;;;;5.80;79.00;;;4.40;100.00;100722.28;5056411;28;19916;-61
2022/01/25 10:16:01;;;;;;;;;;;5.60;79.60;;;4.28;100.00;100734.53;5039114;28;20015;-61
2022/01/25 10:18:39;;;;;;;;;;;5.50;80.90;;;4.08;100.00;100737.56;5073350;28;19921;-63
2022/01/25 10:21:09;;;;;;;;;;;5.40;82.10;;;4.21;100.00;100747.44;5054998;28;19917;-61
2022/01/25 10:23:35;;;;;;;;;;;5.20;83.80;;;4.25;100.00;100737.16;5073249;28;19921;-62
2022/01/25 10:26:01;;;;;;;;;;;5.20;84.60;;;4.13;100.00;100739.13;5058724;28;19970;-60
2022/01/25 10:28:28;;;;;;;;;;;5.10;86.20;;;3.92;100.00;100708.16;5059580;28;19966;-60
2022/01/25 10:30:55;;;;;;;;;;;5.00;87.30;;;4.17;100.00;100740.75;5076457;28;19942;-62
2022/01/25 10:33:42;;;;;;;;;;;5.00;87.40;;;4.02;100.00;100738.56;5058963;28;20069;-62
2022/01/25 10:36:13;;;;;;;;;;;5.00;87.80;;;3.65;100.00;100707.09;5076637;28;20374;-62
2022/01/25 10:38:40;;;;;;;;;;;4.90;88.50;;;4.11;100.00;100735.78;5059362;28;19921;-62
2022/01/25 10:41:11;;;;;;;;;;;4.90;89.60;;;4.16;100.00;100731.41;5076932;28;19967;-62
2022/01/25 10:43:37;;;;;;;;;;;4.90;90.00;;;4.29;100.00;100737.03;5059886;28;19928;-61
2022/01/25 10:46:19;;;;;;;;;;;5.00;90.20;;;3.98;100.00;100690.13;5076456;28;19927;-62
2022/01/25 10:48:50;;;;;;;;;;;5.00;90.10;;;4.24;100.00;100721.00;5076664;28;20052;-63
2022/01/25 10:51:20;;;;;;;;;;;5.00;90.50;;;3.56;100.00;100671.56;5058710;28;20007;-63
2022/01/25 10:53:56;;;;;;;;;;;4.90;90.00;;;3.90;100.00;100685.22;5076694;28;19923;-63
2022/01/25 10:56:23;;;;;;;;;;;4.90;90.40;;;4.06;100.00;100676.31;5059033;28;19981;-63
2022/01/25 10:58:48;;;;;;;;;;;4.90;90.70;;;4.31;100.00;100726.78;5076772;28;19944;-62
2022/01/25 11:01:14;;;;;;;;;;;5.00;90.70;;;4.37;100.00;100711.28;5058431;28;20373;-65
2022/01/25 11:03:41;;;;;;;;;;;5.10;90.60;;;4.49;100.00;100711.81;5042155;28;20293;-63
2022/01/25 11:06:11;;;;;;;;;;;5.30;90.60;;;4.58;100.00;100711.59;5041895;28;19916;-62
2022/01/25 11:08:37;;;;;;;;;;;5.30;90.70;;;4.92;100.00;100718.34;5042166;28;19923;-61
2022/01/25 11:11:06;;;;;;;;;;;5.50;90.80;;;4.84;100.00;100713.44;5076246;28;19920;-63
2022/01/25 11:15:59;;;;;;;;;;;5.60;90.00;;;4.46;100.00;100678.66;5075940;28;19920;-66
2022/01/25 11:18:25;;;;;;;;;;;5.60;89.80;;;4.70;100.00;100709.56;5058480;28;20369;-63
2022/01/25 11:20:52;;;;;;;;;;;5.60;90.10;;;4.60;100.00;100696.22;5058162;28;19916;-63
2022/01/25 11:23:18;;;;;;;;;;;5.60;90.00;;;4.59;100.00;100694.53;5041229;28;19920;-64
2022/01/25 11:25:43;;;;;;;;;;;5.60;89.90;;;4.48;100.00;100671.81;5058202;28;19920;-65
2022/01/25 11:28:09;;;;;;;;;;;5.60;89.70;;;5.13;100.00;100697.25;5057601;28;19916;-66
2022/01/25 11:30:38;;;;;;;;;;;5.80;90.00;;;5.09;100.00;100715.31;5037554;28;19932;-63
2022/01/25 11:33:05;;;;;;;;;;;5.90;89.60;;;5.03;100.00;100700.97;5054141;28;20374;-65
2022/01/25 11:35:30;;;;;;;;;;;5.90;88.80;;;4.99;100.00;100699.38;5053701;28;20334;-65
2022/01/25 11:37:56;;;;;;;;;;;6.00;88.50;;;5.19;100.00;100701.38;5055621;28;19935;-63
2022/01/25 11:40:30;;;;;;;;;;;6.00;88.30;;;5.03;100.00;100705.22;5055534;28;20373;-65
2022/01/25 11:42:58;;;;;;;;;;;6.10;88.20;;;5.16;100.00;100674.16;5055714;28;19925;-63
2022/01/25 11:45:29;;;;;;;;;;;6.20;88.20;;;3.93;100.00;100703.03;5053859;28;19917;-63
2022/01/25 11:47:54;;;;;;;;;;;6.10;86.10;;;3.31;100.00;100654.25;5055824;28;19978;-64
2022/01/25 11:50:25;;;;;;;;;;;5.80;86.70;;;5.08;100.00;100698.28;5053916;28;19933;-64
2022/01/25 11:52:53;;;;;;;;;;;6.10;89.00;;;5.08;100.00;100700.84;5055503;28;20023;-64
2022/01/25 11:55:26;;;;;;;;;;;6.40;87.80;;;4.96;100.00;100707.97;5037310;28;20024;-64
2022/01/25 11:57:59;;;;;;;;;;;6.70;86.00;;;4.42;100.00;100674.53;5054058;28;20027;-65
2022/01/25 12:00:58;;;;;;;;;;;6.70;84.90;;;4.91;100.00;100709.84;5037807;28;19925;-63
2022/01/25 12:03:25;;;;;;;;;;;6.40;84.10;;;4.65;100.00;100706.31;5042791;28;19971;-62
2022/01/25 12:06:16;;;;;;;;;;;6.20;85.30;;;4.88;100.00;100703.94;5055258;28;19921;-63
2022/01/25 12:11:47;;;;;;;;;;;5.90;87.80;;;5.03;100.00;100708.63;5054910;28;19924;-62
2022/01/25 12:14:36;;;;;;;;;;;5.90;88.70;;;4.97;100.00;100707.09;5054921;28;20389;-62
2022/01/25 12:17:02;;;;;;;;;;;5.90;88.50;;;5.05;100.00;100700.91;5054907;28;19971;-66
2022/01/25 12:19:30;;;;;;;;;;;5.90;89.30;;;5.07;100.00;100701.72;5054974;28;19960;-63
2022/01/25 12:22:05;;;;;;;;;;;5.80;89.70;;;4.71;100.00;100649.88;5054577;28;19917;-62
2022/01/25 12:24:37;;;;;;;;;;;5.80;89.70;;;5.05;100.00;100690.69;5055017;28;19917;-63
2022/01/25 12:29:42;;;;;;;;;;;5.80;90.70;;;4.88;100.00;100645.97;5057212;28;21487;-63
2022/01/25 12:32:20;;;;;;;;;;;5.80;90.90;;;5.09;100.00;100672.66;5074461;28;19925;-63
2022/01/25 12:35:01;;;;;;;;;;;5.90;90.90;;;5.16;100.00;100683.56;5056829;28;19963;-61
2022/01/25 12:37:54;;;;;;;;;;;5.90;90.90;;;5.09;100.00;100682.06;5074377;28;19917;-62
2022/01/25 12:40:25;;;;;;;;;;;5.80;90.90;;;4.98;100.00;100688.31;5065996;28;19932;-63
2022/01/25 12:43:16;;;;;;;;;;;5.90;90.90;;;4.82;100.00;100629.97;5074431;28;19974;-63
2022/01/25 12:45:49;;;;;;;;;;;5.90;90.80;;;4.80;100.00;100675.19;5043209;28;19928;-63
2022/01/25 12:48:25;;;;;;;;;;;5.80;90.30;;;4.95;100.00;100670.50;5055256;28;19916;-62
2022/01/25 12:50:52;;;;;;;;;;;5.80;90.60;;;4.91;100.00;100671.47;5056705;28;19917;-62
2022/01/25 12:53:23;;;;;;;;;;;5.70;90.60;;;4.56;100.00;100629.00;5073977;28;19920;-62
2022/01/25 12:55:51;;;;;;;;;;;5.60;90.60;;;4.64;100.00;100677.34;5039741;28;19917;-63
2022/01/25 12:58:25;;;;;;;;;;;5.40;90.90;;;4.34;100.00;100668.78;5056029;28;19943;-62
2022/01/25 13:00:51;;;;;;;;;;;5.30;91.30;;;4.20;100.00;100625.69;5040678;28;19989;-61
2022/01/25 13:03:21;;;;;;;;;;;5.20;91.60;;;4.55;100.00;100659.69;5039161;28;19974;-61
2022/01/25 13:05:52;;;;;;;;;;;5.10;92.00;;;4.20;100.00;100666.56;5074093;28;19942;-63
2022/01/25 13:08:57;;;;;;;;;;;5.10;92.20;;;3.98;100.00;100634.81;5022771;28;19917;-65
2022/01/25 13:11:38;;;;;;;;;;;4.90;92.40;;;4.24;100.00;100667.34;5055542;28;19938;-63
2022/01/25 13:16:39;;;;;;;;;;;4.70;93.10;;;4.13;100.00;100666.78;5073689;28;19928;-63